Terminal Aerodrome Forecast
Issued by NWS

Current Version | Previous Version | Text Only | Print | Product List | Glossary On
Versions: 1 2 3 4 5 6 7 8 9 10 11 12 13 14 15 16 17 18 19 20
000
FTUS45 KFGZ 010229 AAA
TAFPRC
TAF AMD
KPRC 010229Z 0102/0124 20004KT P6SM VCTS SCT070CB BKN120
     FM010400 18005KT P6SM FEW070 SCT120
     FM011700 18010G17KT P6SM SCT060=

USA.gov is the U.S. government's official web portal to all federal, state and local government web resources and services.